Time;durP1;ratioP1;P1;durP2;ratioP2;P2;SDS_P1;SDS_P2;PMS_P1;PMS_P2;Temp;Humidity;BMP_temperature;BMP_pressure;BME280_temperature;BME280_humidity;BME280_pressure;Samples;Min_cycle;Max_cycle;Signal;HPM_P1;HPM_P2
2022/02/04 00:07:21;;;;;;;;;;;6.50;99.90;;;;;;5109829;28;19923;-78
2022/02/04 00:20:51;;;;;;;;;;;6.60;99.90;;;;;;5108155;28;19935;-78
2022/02/04 00:23:31;;;;;;;;;;;6.70;99.90;;;;;;5083505;28;19912;-77
2022/02/04 00:34:15;;;;;;;;;;;6.80;99.90;;;;;;5090507;28;19920;-78
2022/02/04 00:39:22;;;;;;;;;;;6.80;99.90;;;;;;5108369;28;19912;-77
2022/02/04 00:41:49;;;;;;;;;;;6.80;99.90;;;;;;5088096;28;19919;-79
2022/02/04 00:44:22;;;;;;;;;;;6.80;99.90;;;;;;5108672;28;19923;-76
2022/02/04 00:49:20;;;;;;;;;;;6.80;99.90;;;;;;5109379;28;20340;-78
2022/02/04 00:54:56;;;;;;;;;;;6.80;99.90;;;;;;5107890;28;19912;-77
2022/02/04 01:25:54;;;;;;;;;;;6.80;99.90;;;;;;5109660;28;19960;-79
2022/02/04 01:27:23;;;;;;;;;;;6.80;99.90;;;;;;5100872;28;19946;-80
2022/02/04 01:30:04;;;;;;;;;;;6.80;99.90;;;;;;5113455;28;19920;-78
2022/02/04 01:32:30;;;;;;;;;;;6.80;99.90;;;;;;5082520;28;19912;-78
2022/02/04 01:34:55;;;;;;;;;;;6.80;99.90;;;;;;5082251;28;19916;-78
2022/02/04 01:37:21;;;;;;;;;;;6.80;99.90;;;;;;5102289;28;19965;-79
2022/02/04 01:39:47;;;;;;;;;;;6.90;99.90;;;;;;5087556;28;19912;-80
2022/02/04 01:42:13;;;;;;;;;;;6.90;99.90;;;;;;5086314;28;20409;-79
2022/02/04 01:44:39;;;;;;;;;;;6.90;99.90;;;;;;5104326;28;20311;-77
2022/02/04 01:47:04;;;;;;;;;;;7.00;99.90;;;;;;5105943;28;19919;-78
2022/02/04 01:49:30;;;;;;;;;;;7.00;99.90;;;;;;5107209;28;20002;-77
2022/02/04 01:51:56;;;;;;;;;;;6.90;99.90;;;;;;5097008;28;20290;-77
2022/02/04 01:54:23;;;;;;;;;;;6.90;99.90;;;;;;5103589;28;19912;-77
2022/02/04 01:56:49;;;;;;;;;;;6.90;99.90;;;;;;5097626;28;19920;-79
2022/02/04 01:59:14;;;;;;;;;;;6.90;99.90;;;;;;5111007;28;20010;-77
2022/02/04 02:01:40;;;;;;;;;;;6.90;99.90;;;;;;5108352;28;19919;-78
2022/02/04 02:04:08;;;;;;;;;;;6.90;99.90;;;;;;5111537;28;20272;-77
2022/02/04 02:06:41;;;;;;;;;;;6.90;99.90;;;;;;5110614;28;19919;-78
2022/02/04 02:09:07;;;;;;;;;;;6.90;99.90;;;;;;5095381;28;20218;-78
2022/02/04 02:11:32;;;;;;;;;;;6.90;99.90;;;;;;5106459;28;19908;-78
2022/02/04 02:13:58;;;;;;;;;;;6.90;99.90;;;;;;5106935;28;20289;-78
2022/02/04 02:49:03;;;;;;;;;;;6.90;99.90;;;;;;5104537;28;19939;-78
2022/02/04 02:54:07;;;;;;;;;;;6.90;99.90;;;;;;5114887;28;20257;-77
2022/02/04 02:59:21;;;;;;;;;;;6.90;99.90;;;;;;5106494;28;20000;-78
2022/02/04 03:01:49;;;;;;;;;;;6.90;99.90;;;;;;5102333;28;19908;-77
2022/02/04 03:04:16;;;;;;;;;;;6.90;99.90;;;;;;5094414;28;20195;-76
2022/02/04 03:06:42;;;;;;;;;;;6.90;99.90;;;;;;5090545;28;19916;-79
2022/02/04 03:09:08;;;;;;;;;;;6.90;99.90;;;;;;5086330;28;20326;-78
2022/02/04 03:11:34;;;;;;;;;;;6.90;99.90;;;;;;5110374;28;19916;-79
2022/02/04 03:13:59;;;;;;;;;;;7.00;99.90;;;;;;5089176;28;20006;-80
2022/02/04 03:16:25;;;;;;;;;;;7.00;99.90;;;;;;5086878;28;20001;-76
2022/02/04 03:18:53;;;;;;;;;;;7.00;99.90;;;;;;5093758;28;19934;-78
2022/02/04 03:21:25;;;;;;;;;;;7.00;99.90;;;;;;5086787;28;19916;-78
2022/02/04 03:24:02;;;;;;;;;;;7.00;99.90;;;;;;5088389;28;19955;-77
2022/02/04 03:26:34;;;;;;;;;;;7.00;99.90;;;;;;5083457;28;20014;-80
2022/02/04 03:29:00;;;;;;;;;;;7.00;99.90;;;;;;5116969;28;19999;-78
2022/02/04 03:31:30;;;;;;;;;;;7.00;99.90;;;;;;5082555;28;20003;-77
2022/02/04 03:33:56;;;;;;;;;;;7.10;99.90;;;;;;5092888;28;19965;-75
2022/02/04 03:36:21;;;;;;;;;;;7.10;99.90;;;;;;5107418;28;19916;-79
2022/02/04 03:38:47;;;;;;;;;;;7.10;99.90;;;;;;5105947;28;19918;-78
2022/02/04 03:41:13;;;;;;;;;;;7.10;99.90;;;;;;5086251;28;19912;-78
2022/02/04 03:43:39;;;;;;;;;;;7.20;99.90;;;;;;5090357;28;19934;-77
2022/02/04 03:46:05;;;;;;;;;;;7.20;99.90;;;;;;5102887;28;19916;-76
2022/02/04 03:48:31;;;;;;;;;;;7.20;99.90;;;;;;5115136;28;20354;-79
2022/02/04 03:50:56;;;;;;;;;;;7.30;99.90;;;;;;5086337;28;19995;-76
2022/02/04 03:53:22;;;;;;;;;;;7.30;99.90;;;;;;5097660;28;19915;-79
2022/02/04 03:55:48;;;;;;;;;;;7.30;99.90;;;;;;5110208;28;20272;-78
2022/02/04 03:58:13;;;;;;;;;;;7.30;99.90;;;;;;5080036;28;19916;-79
2022/02/04 04:00:39;;;;;;;;;;;7.30;99.90;;;;;;5089200;28;19923;-76
2022/02/04 04:03:04;;;;;;;;;;;7.30;99.90;;;;;;5102395;28;20006;-79
2022/02/04 04:05:30;;;;;;;;;;;7.30;99.90;;;;;;5115239;27;19912;-79
2022/02/04 04:07:56;;;;;;;;;;;7.40;99.90;;;;;;5110745;28;20357;-82
2022/02/04 04:10:25;;;;;;;;;;;7.40;99.90;;;;;;5117118;28;19912;-80
2022/02/04 04:12:52;;;;;;;;;;;7.40;99.90;;;;;;5105557;28;19931;-80
2022/02/04 04:15:18;;;;;;;;;;;7.40;99.90;;;;;;5110409;28;19997;-79
2022/02/04 04:17:45;;;;;;;;;;;7.40;99.90;;;;;;5114114;28;19958;-80
2022/02/04 04:20:21;;;;;;;;;;;7.40;99.90;;;;;;5088256;28;20009;-80
2022/02/04 04:22:47;;;;;;;;;;;7.40;99.90;;;;;;5105646;28;19912;-78
2022/02/04 04:25:13;;;;;;;;;;;7.40;99.90;;;;;;5101367;28;19969;-80
2022/02/04 04:27:42;;;;;;;;;;;7.40;99.90;;;;;;5110163;28;20324;-78
2022/02/04 04:30:09;;;;;;;;;;;7.40;99.90;;;;;;5108965;28;19916;-77
2022/02/04 04:32:34;;;;;;;;;;;7.40;99.90;;;;;;5108431;28;20011;-76
2022/02/04 04:35:00;;;;;;;;;;;7.40;99.90;;;;;;5088849;28;20041;-79
2022/02/04 04:37:26;;;;;;;;;;;7.40;99.90;;;;;;5105182;28;20010;-78
2022/02/04 05:29:07;;;;;;;;;;;7.30;99.90;;;;;;5101755;28;19924;-78
2022/02/04 05:31:32;;;;;;;;;;;7.30;99.90;;;;;;5108203;28;20330;-77
2022/02/04 05:33:58;;;;;;;;;;;7.30;99.90;;;;;;5086153;28;19933;-79
2022/02/04 05:36:24;;;;;;;;;;;7.20;99.90;;;;;;5082510;28;19934;-79
2022/02/04 05:38:52;;;;;;;;;;;7.20;99.90;;;;;;5101200;28;19912;-77
2022/02/04 05:41:24;;;;;;;;;;;7.20;99.90;;;;;;5098391;28;19920;-79
2022/02/04 05:43:51;;;;;;;;;;;7.20;99.90;;;;;;5081677;28;19918;-77
2022/02/04 05:46:20;;;;;;;;;;;7.30;99.90;;;;;;5101120;28;20199;-78
2022/02/04 05:48:53;;;;;;;;;;;7.20;99.90;;;;;;5105833;28;19920;-75
2022/02/04 06:01:55;;;;;;;;;;;7.20;99.90;;;;;;5104458;28;20022;-77
2022/02/04 06:12:13;;;;;;;;;;;7.20;99.90;;;;;;5107593;28;19912;-78
2022/02/04 06:22:39;;;;;;;;;;;7.20;99.90;;;;;;5110705;28;19966;-77
2022/02/04 06:25:07;;;;;;;;;;;7.20;99.90;;;;;;5095820;28;19952;-77
2022/02/04 06:27:33;;;;;;;;;;;7.20;99.90;;;;;;5087131;28;19939;-77
2022/02/04 06:29:59;;;;;;;;;;;7.20;99.90;;;;;;5089002;28;20007;-77
2022/02/04 06:32:25;;;;;;;;;;;7.20;99.90;;;;;;5090180;28;19938;-76
2022/02/04 06:34:51;;;;;;;;;;;7.20;99.90;;;;;;5105060;28;19943;-77
2022/02/04 06:37:17;;;;;;;;;;;7.20;99.90;;;;;;5092082;28;19912;-77
2022/02/04 06:39:43;;;;;;;;;;;7.20;99.90;;;;;;5101311;28;20364;-79
2022/02/04 06:42:09;;;;;;;;;;;7.20;99.90;;;;;;5114324;28;20223;-80
2022/02/04 06:44:35;;;;;;;;;;;7.20;99.90;;;;;;5116725;28;19916;-77
2022/02/04 06:47:02;;;;;;;;;;;7.10;99.90;;;;;;5106915;28;19916;-78
2022/02/04 06:49:27;;;;;;;;;;;7.20;99.90;;;;;;5115502;28;19918;-78
2022/02/04 06:51:53;;;;;;;;;;;7.10;99.90;;;;;;5117970;28;20215;-77
2022/02/04 06:54:18;;;;;;;;;;;7.20;99.90;;;;;;5088277;28;20346;-77
2022/02/04 06:56:44;;;;;;;;;;;7.20;99.90;;;;;;5115557;28;20037;-77
2022/02/04 06:59:09;;;;;;;;;;;7.20;99.90;;;;;;5104594;28;19916;-76
2022/02/04 07:01:35;;;;;;;;;;;7.20;99.90;;;;;;5103169;28;20006;-75
2022/02/04 07:04:06;;;;;;;;;;;7.20;99.90;;;;;;5085349;28;19916;-78
2022/02/04 07:06:35;;;;;;;;;;;7.20;99.90;;;;;;5089034;28;19919;-77
2022/02/04 07:14:50;;;;;;;;;;;7.30;99.90;;;;;;5115981;28;19922;-76
2022/02/04 07:17:23;;;;;;;;;;;7.30;99.90;;;;;;5089120;28;19932;-77
2022/02/04 07:19:49;;;;;;;;;;;7.30;99.90;;;;;;5082782;28;19994;-76
2022/02/04 07:22:30;;;;;;;;;;;7.30;99.90;;;;;;5110547;28;19958;-75
2022/02/04 07:24:59;;;;;;;;;;;7.30;99.90;;;;;;5092447;28;19912;-77
2022/02/04 07:27:28;;;;;;;;;;;7.30;99.90;;;;;;5103035;28;19931;-76
2022/02/04 07:29:55;;;;;;;;;;;7.30;99.90;;;;;;5089879;28;19915;-77
2022/02/04 07:32:31;;;;;;;;;;;7.30;99.90;;;;;;5088403;28;19911;-77
2022/02/04 07:42:55;;;;;;;;;;;7.40;99.90;;;;;;5100054;28;19946;-78
2022/02/04 07:45:21;;;;;;;;;;;7.40;99.90;;;;;;5116770;28;19915;-78
2022/02/04 07:47:47;;;;;;;;;;;7.40;99.90;;;;;;5101652;28;19923;-79
2022/02/04 07:50:13;;;;;;;;;;;7.40;99.90;;;;;;5106130;28;20058;-77
2022/02/04 07:52:38;;;;;;;;;;;7.40;99.90;;;;;;5115573;28;20285;-78
2022/02/04 07:55:05;;;;;;;;;;;7.40;99.90;;;;;;5114053;28;20190;-79
2022/02/04 07:57:32;;;;;;;;;;;7.40;99.90;;;;;;5097710;28;19931;-77
2022/02/04 08:00:02;;;;;;;;;;;7.50;99.90;;;;;;5111703;28;19923;-78
2022/02/04 08:02:28;;;;;;;;;;;7.50;99.90;;;;;;5090346;28;19922;-76
2022/02/04 08:04:58;;;;;;;;;;;7.40;99.90;;;;;;5096028;28;20287;-78
2022/02/04 08:07:28;;;;;;;;;;;7.50;99.90;;;;;;5117189;28;19949;-79
2022/02/04 08:10:27;;;;;;;;;;;7.50;99.90;;;;;;5088231;28;20290;-77
2022/02/04 08:23:31;;;;;;;;;;;7.60;99.90;;;;;;5106604;28;19915;-78
2022/02/04 08:55:07;;;;;;;;;;;7.80;99.90;;;;;;5102966;28;19961;-76
2022/02/04 08:57:47;;;;;;;;;;;7.80;99.90;;;;;;5094463;28;19956;-79
2022/02/04 09:00:29;;;;;;;;;;;7.90;99.90;;;;;;5111991;28;19919;-79
2022/02/04 09:02:59;;;;;;;;;;;7.90;99.90;;;;;;5114666;28;19934;-80
2022/02/04 09:05:34;;;;;;;;;;;8.00;99.90;;;;;;5093745;28;20417;-76
2022/02/04 09:10:36;;;;;;;;;;;8.00;99.90;;;;;;5111711;28;19923;-79
2022/02/04 09:20:57;;;;;;;;;;;8.10;99.90;;;;;;5113541;28;20295;-79
2022/02/04 09:23:24;;;;;;;;;;;8.10;99.90;;;;;;5107115;28;19989;-80
2022/02/04 09:25:49;;;;;;;;;;;8.10;99.90;;;;;;5109907;28;19972;-77
2022/02/04 09:28:15;;;;;;;;;;;8.10;99.90;;;;;;5111323;28;20539;-76
2022/02/04 09:30:41;;;;;;;;;;;8.10;99.90;;;;;;5094903;28;19986;-78
2022/02/04 09:33:07;;;;;;;;;;;8.20;99.90;;;;;;5114963;28;19918;-78
2022/02/04 09:35:32;;;;;;;;;;;8.20;99.90;;;;;;5114391;28;20657;-78
2022/02/04 09:37:58;;;;;;;;;;;8.20;99.90;;;;;;5114024;28;20306;-78
2022/02/04 09:40:24;;;;;;;;;;;8.20;99.90;;;;;;5112867;28;20219;-77
2022/02/04 09:42:50;;;;;;;;;;;8.30;99.90;;;;;;5095922;28;20227;-78
2022/02/04 09:45:18;;;;;;;;;;;8.30;99.90;;;;;;5111888;28;19915;-77
2022/02/04 09:47:48;;;;;;;;;;;8.30;99.90;;;;;;5093193;28;20454;-77
2022/02/04 09:50:17;;;;;;;;;;;8.20;99.90;;;;;;5115484;27;19923;-76
2022/02/04 10:10:38;;;;;;;;;;;8.40;99.90;;;;;;5108151;28;19916;-77
2022/02/04 10:12:58;;;;;;;;;;;8.50;99.90;;;;;;5098885;28;19923;-76
2022/02/04 10:17:40;;;;;;;;;;;8.60;99.90;;;;;;5106069;28;19915;-78
2022/02/04 10:20:06;;;;;;;;;;;8.60;99.90;;;;;;5088501;28;19931;-75
2022/02/04 10:22:33;;;;;;;;;;;8.60;99.90;;;;;;5104253;28;19912;-77
2022/02/04 10:25:11;;;;;;;;;;;8.70;99.90;;;;;;5086635;28;19923;-76
2022/02/04 10:27:36;;;;;;;;;;;8.70;99.90;;;;;;5088030;28;20299;-75
2022/02/04 10:30:05;;;;;;;;;;;8.70;99.90;;;;;;5100960;28;19915;-79
2022/02/04 10:32:30;;;;;;;;;;;8.70;99.90;;;;;;5090797;28;20218;-75
2022/02/04 10:35:03;;;;;;;;;;;8.70;99.90;;;;;;5085175;28;19982;-76
2022/02/04 10:37:32;;;;;;;;;;;8.70;99.90;;;;;;5091992;28;19915;-75
2022/02/04 10:40:09;;;;;;;;;;;8.80;99.90;;;;;;5087068;28;20002;-77
2022/02/04 10:43:13;;;;;;;;;;;8.80;99.90;;;;;;5091133;28;19920;-76
2022/02/04 10:45:55;;;;;;;;;;;8.90;99.90;;;;;;5109818;28;19918;-75
2022/02/04 10:48:34;;;;;;;;;;;9.00;99.90;;;;;;5083637;28;20005;-75
2022/02/04 10:51:34;;;;;;;;;;;8.90;99.90;;;;;;5084465;28;20362;-75
2022/02/04 11:04:13;;;;;;;;;;;8.80;99.90;;;;;;5095062;28;19924;-76
2022/02/04 11:10:03;;;;;;;;;;;8.80;99.90;;;;;;5083270;28;19965;-78
2022/02/04 11:31:12;;;;;;;;;;;8.70;99.90;;;;;;5115595;28;19965;-75
2022/02/04 11:48:59;;;;;;;;;;;8.30;99.90;;;;;;5111672;28;19926;-75
2022/02/04 11:56:56;;;;;;;;;;;8.30;99.90;;;;;;5104600;28;19922;-76
2022/02/04 11:59:43;;;;;;;;;;;8.40;99.90;;;;;;5111194;28;20446;-78
2022/02/04 12:02:26;;;;;;;;;;;8.30;99.90;;;;;;5109801;28;20416;-75
2022/02/04 12:05:07;;;;;;;;;;;8.30;99.90;;;;;;5092298;28;20227;-76
2022/02/04 12:07:34;;;;;;;;;;;8.30;99.90;;;;;;5107382;28;19955;-76
2022/02/04 12:10:19;;;;;;;;;;;8.20;99.90;;;;;;5087989;28;20222;-75
2022/02/04 12:12:58;;;;;;;;;;;8.10;99.90;;;;;;5088758;28;19912;-75
2022/02/04 12:15:34;;;;;;;;;;;8.10;99.90;;;;;;5117558;28;20238;-75
2022/02/04 12:18:02;;;;;;;;;;;8.10;99.90;;;;;;5111644;28;19915;-74
2022/02/04 12:23:33;;;;;;;;;;;8.00;99.90;;;;;;5115375;28;19939;-75
2022/02/04 12:26:13;;;;;;;;;;;8.00;99.90;;;;;;5095801;28;19976;-75
2022/02/04 12:28:38;;;;;;;;;;;8.00;99.90;;;;;;5112871;28;19951;-75
2022/02/04 12:31:07;;;;;;;;;;;7.90;99.90;;;;;;5094240;28;19950;-76
2022/02/04 12:33:40;;;;;;;;;;;7.90;99.90;;;;;;5093270;28;19922;-77
2022/02/04 12:36:11;;;;;;;;;;;7.80;99.90;;;;;;5091399;28;19952;-76
2022/02/04 12:38:36;;;;;;;;;;;7.80;99.90;;;;;;5093539;28;19992;-75
2022/02/04 12:41:02;;;;;;;;;;;7.80;99.90;;;;;;5094673;28;19946;-76
2022/02/04 12:43:27;;;;;;;;;;;7.70;99.90;;;;;;5095811;28;20423;-75
2022/02/04 12:45:53;;;;;;;;;;;7.70;99.90;;;;;;5115125;28;20325;-76
2022/02/04 12:48:19;;;;;;;;;;;7.70;99.90;;;;;;5096700;28;19916;-76
2022/02/04 12:50:54;;;;;;;;;;;7.70;99.90;;;;;;5112878;28;20287;-77
2022/02/04 12:53:27;;;;;;;;;;;7.70;99.90;;;;;;5108750;28;19912;-77
2022/02/04 12:56:16;;;;;;;;;;;7.60;99.90;;;;;;5086174;28;19920;-76
2022/02/04 12:58:55;;;;;;;;;;;7.60;99.90;;;;;;5086465;28;20008;-77
2022/02/04 13:12:06;;;;;;;;;;;7.50;99.90;;;;;;5102950;28;20265;-76
2022/02/04 13:14:31;;;;;;;;;;;7.50;99.90;;;;;;5106787;28;19969;-77
2022/02/04 13:16:57;;;;;;;;;;;7.40;99.90;;;;;;5094061;28;19912;-76
2022/02/04 13:19:23;;;;;;;;;;;7.40;99.90;;;;;;5102515;28;20307;-77
2022/02/04 13:21:48;;;;;;;;;;;7.40;99.90;;;;;;5112479;28;19984;-76
2022/02/04 13:24:16;;;;;;;;;;;6.80;99.90;;;;;;5113233;28;19973;-75
2022/02/04 13:26:42;;;;;;;;;;;5.80;99.90;;;;;;5113619;27;19918;-74
2022/02/04 13:29:08;;;;;;;;;;;5.30;99.90;;;;;;5101540;28;20214;-75
2022/02/04 13:31:36;;;;;;;;;;;5.10;99.90;;;;;;5093924;28;20033;-76
2022/02/04 13:34:12;;;;;;;;;;;5.10;99.90;;;;;;5095509;28;19969;-75
2022/02/04 13:36:42;;;;;;;;;;;5.00;99.90;;;;;;5111079;28;19912;-75
2022/02/04 13:50:05;;;;;;;;;;;4.20;99.90;;;;;;5108150;28;19962;-75
2022/02/04 13:58:10;;;;;;;;;;;4.00;99.90;;;;;;5111377;28;19942;-76
2022/02/04 14:00:55;;;;;;;;;;;4.00;99.90;;;;;;5095244;28;19915;-79
2022/02/04 14:03:23;;;;;;;;;;;3.90;99.90;;;;;;5095052;28;19912;-78
2022/02/04 14:06:24;;;;;;;;;;;3.90;99.90;;;;;;5095460;28;19969;-77
2022/02/04 14:11:10;;;;;;;;;;;3.90;99.90;;;;;;5112254;28;19918;-75
2022/02/04 14:13:35;;;;;;;;;;;3.80;99.90;;;;;;5111348;28;19955;-78
2022/02/04 14:16:05;;;;;;;;;;;3.80;99.90;;;;;;5112909;28;19947;-75
2022/02/04 14:18:31;;;;;;;;;;;3.90;99.90;;;;;;5093760;28;19941;-77
2022/02/04 14:20:57;;;;;;;;;;;3.90;99.90;;;;;;5094918;28;19919;-76
2022/02/04 14:23:23;;;;;;;;;;;3.80;99.90;;;;;;5096572;28;19916;-75
2022/02/04 14:25:58;;;;;;;;;;;3.80;99.90;;;;;;5117358;27;19922;-75
2022/02/04 14:28:34;;;;;;;;;;;3.70;99.90;;;;;;5105840;28;20182;-75
2022/02/04 14:31:28;;;;;;;;;;;3.70;99.90;;;;;;5103501;28;20315;-75
2022/02/04 15:00:43;;;;;;;;;;;3.90;99.90;;;;;;5110215;28;20218;-80
2022/02/04 15:05:41;;;;;;;;;;;3.90;99.90;;;;;;5111587;28;19966;-75
2022/02/04 15:08:11;;;;;;;;;;;3.90;99.90;;;;;;5100555;28;19939;-75
2022/02/04 15:10:38;;;;;;;;;;;3.90;99.90;;;;;;5097396;28;19915;-75
2022/02/04 15:13:10;;;;;;;;;;;3.90;99.90;;;;;;5082113;28;19967;-75
2022/02/04 15:15:36;;;;;;;;;;;3.90;99.90;;;;;;5065953;28;19923;-75
2022/02/04 15:18:01;;;;;;;;;;;3.90;99.90;;;;;;5078420;28;19999;-76
2022/02/04 15:20:27;;;;;;;;;;;3.90;99.90;;;;;;5060750;28;19939;-75
2022/02/04 15:22:52;;;;;;;;;;;3.90;99.90;;;;;;5078071;28;20074;-77
2022/02/04 15:25:21;;;;;;;;;;;3.90;99.90;;;;;;5082160;28;19920;-76
2022/02/04 15:30:40;;;;;;;;;;;3.80;99.90;;;;;;5048918;28;19916;-76
2022/02/04 15:33:06;;;;;;;;;;;3.80;99.90;;;;;;5086137;28;19928;-75
2022/02/04 15:35:32;;;;;;;;;;;3.80;99.90;;;;;;5088005;28;20287;-76
2022/02/04 15:37:57;;;;;;;;;;;3.80;99.90;;;;;;5073943;28;20497;-75
2022/02/04 15:40:23;;;;;;;;;;;3.70;99.90;;;;;;5086379;28;19955;-76
2022/02/04 15:43:01;;;;;;;;;;;3.70;99.90;;;;;;5091378;28;19959;-75
2022/02/04 15:50:59;;;;;;;;;;;3.70;99.90;;;;;;5092559;28;20023;-76
2022/02/04 15:53:35;;;;;;;;;;;3.70;99.90;;;;;;5077470;28;19927;-75
2022/02/04 15:59:09;;;;;;;;;;;3.70;99.90;;;;;;5092863;28;19920;-75
2022/02/04 16:01:47;;;;;;;;;;;3.80;99.90;;;;;;5086184;28;20310;-75
2022/02/04 16:04:25;;;;;;;;;;;3.80;99.90;;;;;;5087588;28;19912;-75
2022/02/04 16:06:51;;;;;;;;;;;3.80;99.90;;;;;;5089849;28;19919;-75
2022/02/04 16:09:20;;;;;;;;;;;3.90;99.90;;;;;;5102977;28;19912;-75
2022/02/04 16:12:23;;;;;;;;;;;3.90;99.90;;;;;;5088021;28;19923;-75
2022/02/04 16:14:46;;;;;;;;;;;3.90;99.90;;;;;;5102444;28;19967;-75
2022/02/04 16:17:19;;;;;;;;;;;3.90;99.90;;;;;;5105672;28;20330;-75
2022/02/04 16:19:47;;;;;;;;;;;3.90;99.90;;;;;;5088134;28;19916;-74
2022/02/04 16:30:08;;;;;;;;;;;3.80;99.90;;;;;;5112939;28;20283;-76
2022/02/04 16:32:34;;;;;;;;;;;3.90;99.90;;;;;;5098050;28;19916;-75
2022/02/04 16:35:04;;;;;;;;;;;4.00;99.90;;;;;;5110491;28;19920;-74
2022/02/04 16:37:33;;;;;;;;;;;4.00;99.90;;;;;;5110918;28;20019;-74
2022/02/04 16:40:04;;;;;;;;;;;4.00;99.90;;;;;;5090067;28;20344;-75
2022/02/04 16:42:31;;;;;;;;;;;4.00;99.90;;;;;;5094649;28;20006;-74
2022/02/04 16:44:56;;;;;;;;;;;3.90;99.90;;;;;;5115068;28;19946;-75
2022/02/04 16:47:22;;;;;;;;;;;3.90;99.90;;;;;;5114116;28;19958;-75
2022/02/04 16:49:48;;;;;;;;;;;3.80;99.90;;;;;;5113301;28;19916;-74
2022/02/04 16:52:15;;;;;;;;;;;3.80;99.90;;;;;;5112213;28;20038;-76
2022/02/04 16:54:41;;;;;;;;;;;3.70;99.90;;;;;;5113751;28;20014;-75
2022/02/04 16:57:07;;;;;;;;;;;3.60;99.90;;;;;;5094997;28;19911;-75
2022/02/04 16:59:33;;;;;;;;;;;3.60;99.90;;;;;;5095849;28;20013;-75
2022/02/04 17:01:59;;;;;;;;;;;3.60;99.90;;;;;;5118421;27;19915;-76
2022/02/04 17:04:25;;;;;;;;;;;3.50;99.90;;;;;;5109655;27;20031;-75
2022/02/04 17:07:03;;;;;;;;;;;3.60;99.90;;;;;;5085683;28;20003;-77
2022/02/04 17:09:34;;;;;;;;;;;3.60;99.90;;;;;;5112207;28;20010;-77
2022/02/04 17:12:06;;;;;;;;;;;3.50;99.90;;;;;;5112605;28;19930;-77
2022/02/04 17:14:32;;;;;;;;;;;3.50;99.90;;;;;;5090601;28;19950;-77
2022/02/04 17:16:58;;;;;;;;;;;3.60;99.90;;;;;;5108552;28;19915;-75
2022/02/04 17:19:28;;;;;;;;;;;3.60;99.90;;;;;;5092252;28;20014;-76
2022/02/04 17:22:02;;;;;;;;;;;3.60;99.90;;;;;;5091099;28;19916;-74
2022/02/04 17:24:28;;;;;;;;;;;3.60;99.90;;;;;;5100625;28;19912;-75
2022/02/04 17:26:53;;;;;;;;;;;3.60;99.90;;;;;;5108024;28;20614;-76
2022/02/04 17:29:19;;;;;;;;;;;3.60;99.90;;;;;;5108800;28;19916;-75
2022/02/04 17:31:44;;;;;;;;;;;3.70;99.90;;;;;;5100686;27;19916;-76
2022/02/04 17:34:11;;;;;;;;;;;3.70;99.90;;;;;;5091198;28;19916;-75
2022/02/04 17:36:37;;;;;;;;;;;3.80;99.90;;;;;;5107709;28;19939;-76
2022/02/04 17:39:11;;;;;;;;;;;3.80;99.90;;;;;;5110823;28;19950;-76
2022/02/04 17:41:37;;;;;;;;;;;3.80;99.90;;;;;;5100912;28;19970;-76
2022/02/04 17:44:03;;;;;;;;;;;3.90;99.90;;;;;;5093608;28;20294;-75
2022/02/04 17:46:28;;;;;;;;;;;4.00;99.90;;;;;;5105802;28;19915;-76
2022/02/04 17:49:06;;;;;;;;;;;4.00;99.90;;;;;;5109380;28;20234;-75
2022/02/04 17:51:42;;;;;;;;;;;4.10;99.90;;;;;;5107723;28;20562;-75
2022/02/04 17:54:11;;;;;;;;;;;4.10;99.90;;;;;;5091907;28;20006;-75
2022/02/04 17:59:18;;;;;;;;;;;4.10;99.90;;;;;;5110371;27;19920;-77
2022/02/04 18:05:38;;;;;;;;;;;4.20;99.90;;;;;;5087216;28;19923;-77
2022/02/04 18:07:33;;;;;;;;;;;4.20;99.90;;;;;;5069717;28;20162;-76
2022/02/04 18:09:58;;;;;;;;;;;4.30;99.90;;;;;;5079742;28;20347;-76
2022/02/04 18:12:24;;;;;;;;;;;4.40;99.90;;;;;;5085791;28;19962;-76
2022/02/04 18:14:50;;;;;;;;;;;4.40;99.90;;;;;;5083155;28;20002;-75
2022/02/04 18:17:17;;;;;;;;;;;4.40;99.90;;;;;;5073100;28;19920;-74
2022/02/04 18:19:43;;;;;;;;;;;4.30;99.90;;;;;;5070545;28;19916;-75
2022/02/04 18:22:09;;;;;;;;;;;4.20;99.90;;;;;;5082746;28;19924;-74
2022/02/04 18:24:34;;;;;;;;;;;4.20;99.90;;;;;;5084978;28;19916;-75
2022/02/04 18:27:00;;;;;;;;;;;4.20;99.90;;;;;;5081515;28;20007;-75
2022/02/04 18:29:25;;;;;;;;;;;4.20;99.90;;;;;;5079042;28;19920;-75
2022/02/04 18:31:53;;;;;;;;;;;4.20;99.90;;;;;;5081898;28;19916;-76
2022/02/04 18:34:19;;;;;;;;;;;4.20;99.90;;;;;;5083221;28;20385;-76
2022/02/04 18:36:45;;;;;;;;;;;4.20;99.90;;;;;;5082933;28;19916;-76
2022/02/04 18:44:14;;;;;;;;;;;4.20;99.90;;;;;;5098486;28;19938;-77
2022/02/04 18:52:02;;;;;;;;;;;4.20;99.90;;;;;;5094763;28;19927;-75
2022/02/04 18:54:45;;;;;;;;;;;4.30;99.90;;;;;;5091896;28;19912;-76
2022/02/04 18:57:22;;;;;;;;;;;4.30;99.90;;;;;;5101408;28;19915;-77
2022/02/04 19:00:00;;;;;;;;;;;4.40;99.90;;;;;;5077476;28;19923;-75
2022/02/04 19:02:27;;;;;;;;;;;4.40;99.90;;;;;;5108995;28;19920;-75
2022/02/04 19:05:18;;;;;;;;;;;4.40;99.90;;;;;;5098908;28;20598;-77
2022/02/04 19:10:07;;;;;;;;;;;4.50;99.90;;;;;;5109419;28;20226;-75
2022/02/04 19:12:44;;;;;;;;;;;4.60;99.90;;;;;;5108761;28;20381;-77
2022/02/04 19:17:50;;;;;;;;;;;4.70;99.90;;;;;;5109102;28;20034;-78
2022/02/04 19:20:34;;;;;;;;;;;4.70;99.90;;;;;;5108238;28;20263;-75
2022/02/04 19:23:04;;;;;;;;;;;4.70;99.90;;;;;;5108594;28;19995;-79
2022/02/04 19:25:34;;;;;;;;;;;4.70;99.90;;;;;;5113133;28;20014;-78
2022/02/04 19:28:00;;;;;;;;;;;4.70;99.90;;;;;;5087738;28;20315;-76
2022/02/04 19:30:26;;;;;;;;;;;4.70;99.90;;;;;;5098515;28;20238;-78
2022/02/04 19:32:53;;;;;;;;;;;4.70;99.90;;;;;;5095333;28;19926;-75
2022/02/04 19:35:19;;;;;;;;;;;4.80;99.90;;;;;;5096549;28;19974;-79
2022/02/04 19:37:45;;;;;;;;;;;4.90;99.90;;;;;;5078399;28;19916;-78
2022/02/04 19:40:11;;;;;;;;;;;4.90;99.90;;;;;;5073401;28;19916;-79
2022/02/04 19:42:40;;;;;;;;;;;4.90;99.90;;;;;;5100407;28;20356;-79
2022/02/04 19:45:12;;;;;;;;;;;4.90;99.90;;;;;;5083126;28;20182;-75
2022/02/04 19:48:21;;;;;;;;;;;5.00;99.90;;;;;;5083907;28;20375;-77
2022/02/04 19:50:39;;;;;;;;;;;5.00;99.90;;;;;;5095542;28;19916;-81
2022/02/04 20:06:56;;;;;;;;;;;5.10;99.90;;;;;;5101795;28;19922;-78
2022/02/04 20:25:24;;;;;;;;;;;5.00;99.90;;;;;;5102115;28;19923;-77
2022/02/04 20:27:52;;;;;;;;;;;5.00;99.90;;;;;;5082137;28;19916;-78
2022/02/04 20:30:18;;;;;;;;;;;5.00;99.90;;;;;;5102217;28;19962;-78
2022/02/04 20:32:44;;;;;;;;;;;5.00;99.90;;;;;;5108631;28;19954;-77
2022/02/04 20:35:10;;;;;;;;;;;4.90;99.90;;;;;;5097320;28;20281;-75
2022/02/04 20:37:36;;;;;;;;;;;4.90;99.90;;;;;;5102423;28;20015;-77
2022/02/04 20:40:23;;;;;;;;;;;4.90;99.90;;;;;;5109553;28;19918;-76
2022/02/04 20:42:48;;;;;;;;;;;5.00;99.90;;;;;;5100511;28;20273;-78
2022/02/04 20:45:14;;;;;;;;;;;4.90;99.90;;;;;;5079818;28;19969;-78
2022/02/04 20:47:43;;;;;;;;;;;4.90;99.90;;;;;;5093837;28;20298;-76
2022/02/04 20:50:09;;;;;;;;;;;4.90;99.90;;;;;;5104637;28;20286;-77
2022/02/04 20:52:36;;;;;;;;;;;4.90;99.90;;;;;;5086436;28;19920;-76
2022/02/04 20:55:02;;;;;;;;;;;4.80;99.90;;;;;;5094680;28;20249;-75
2022/02/04 20:57:28;;;;;;;;;;;4.80;99.90;;;;;;5100212;28;19943;-78
2022/02/04 20:59:53;;;;;;;;;;;4.70;99.90;;;;;;5093273;28;19912;-77
2022/02/04 21:02:19;;;;;;;;;;;4.70;99.90;;;;;;5095468;28;19915;-78
2022/02/04 21:04:46;;;;;;;;;;;4.80;99.90;;;;;;5093714;28;19998;-78
2022/02/04 21:15:26;;;;;;;;;;;4.70;99.90;;;;;;5102239;28;19927;-76
2022/02/04 21:17:52;;;;;;;;;;;4.70;99.90;;;;;;5107548;28;19912;-79
2022/02/04 21:20:18;;;;;;;;;;;4.70;99.90;;;;;;5103764;28;20009;-76
2022/02/04 21:22:44;;;;;;;;;;;4.70;99.90;;;;;;5089919;28;20196;-77
2022/02/04 21:25:11;;;;;;;;;;;4.70;99.90;;;;;;5100624;28;19923;-76
2022/02/04 21:27:40;;;;;;;;;;;4.70;99.90;;;;;;5100052;27;19919;-78
2022/02/04 21:30:06;;;;;;;;;;;4.70;99.90;;;;;;5082954;28;19935;-77
2022/02/04 21:32:35;;;;;;;;;;;4.70;99.90;;;;;;5103133;28;20222;-77
2022/02/04 21:37:44;;;;;;;;;;;4.70;99.90;;;;;;5110059;28;19923;-79
2022/02/04 21:40:10;;;;;;;;;;;4.80;99.90;;;;;;5082917;28;19931;-79
2022/02/04 21:42:36;;;;;;;;;;;4.80;99.90;;;;;;5087089;28;19920;-77
2022/02/04 21:45:05;;;;;;;;;;;4.80;99.90;;;;;;5103584;28;19922;-77
2022/02/04 21:47:35;;;;;;;;;;;4.80;99.90;;;;;;5090774;28;19927;-78
2022/02/04 21:50:03;;;;;;;;;;;4.80;99.90;;;;;;5090642;28;19923;-78
2022/02/04 21:52:30;;;;;;;;;;;4.80;99.90;;;;;;5100630;28;19915;-77
2022/02/04 21:54:55;;;;;;;;;;;4.90;99.90;;;;;;5097798;28;19928;-78
2022/02/04 21:57:21;;;;;;;;;;;4.90;99.90;;;;;;5102218;28;20002;-77
2022/02/04 21:59:47;;;;;;;;;;;5.00;99.90;;;;;;5101601;28;19920;-76
2022/02/04 22:02:13;;;;;;;;;;;5.00;99.90;;;;;;5093125;28;20594;-80
2022/02/04 22:04:41;;;;;;;;;;;5.00;99.90;;;;;;5080283;28;20398;-77
2022/02/04 22:07:06;;;;;;;;;;;5.10;99.90;;;;;;5091545;28;21481;-77
2022/02/04 22:10:01;;;;;;;;;;;5.10;99.90;;;;;;5095982;28;19924;-78
2022/02/04 22:12:47;;;;;;;;;;;5.20;99.90;;;;;;5100637;28;19916;-76
2022/02/04 22:19:30;;;;;;;;;;;5.30;99.90;;;;;;5096510;28;19922;-77
2022/02/04 22:23:13;;;;;;;;;;;5.30;99.90;;;;;;5099829;28;19982;-77